Latest Weather Observations for Blackwater Airport

IDQ60801

Issued at 6:32 am EST Tuesday 27 September 2016 (issued every 30 minutes, with the page automatically refreshed every 10 minutes)

About weather observations | Map of weather stations | Latest weather observations for QLD | Other Formats
Station Details ID: 035134 Name: BLACKWATER AIRPORT Lat: -23.60 Lon: 148.81 Height: 192.95 m
Data from the previous 72 hours. | See also: Recent months at Blackwater Airport
Date/Time
EST
Temp
°C
App
Temp
°C
Dew
Point
°C
Rel
Hum
%
Delta-T
°C
Wind Press
QNH
hPa
Press
MSL
hPa
Rain since
9am
mm
Dir  Spd
km/h
Gust
km/h
Spd
kts
Gust
kts
27/06:30am 12.3 12.0 8.8 79 1.8 CALM 0 0 0 0 1015.8 1015.1 0.0
27/06:00am 12.3 10.2 8.4 77 1.9 SW 9 11 5 6 1015.4 1014.7 0.0
27/05:30am 12.3 10.7 8.2 76 2.0 SE 6 7 3 4 1015.0 1014.3 0.0
27/05:00am 12.1 11.0 8.6 79 1.8 SE 4 6 2 3 1014.8 1014.1 0.0
27/04:30am 13.0 11.3 8.5 74 2.3 S 7 11 4 6 1014.5 1013.8 0.0
27/04:00am 11.7 10.3 7.4 75 2.1 SW 4 7 2 4 1014.4 1013.7 0.0
27/03:30am 12.9 11.3 8.2 73 2.4 ENE 6 9 3 5 1013.6 1012.9 0.0
27/03:00am 11.7 9.3 7.2 74 2.2 ENE 9 11 5 6 1013.4 1012.7 0.0
27/02:30am 13.6 11.1 8.2 70 2.7 SSE 11 15 6 8 1013.6 1012.9 0.0
27/02:00am 13.3 11.2 8.2 71 2.6 SSW 9 11 5 6 1013.5 1012.8 0.0
27/01:30am 13.6 11.6 8.7 72 2.5 SW 9 13 5 7 1013.7 1013.0 0.0
27/01:00am 13.9 12.0 9.1 73 2.5 WNW 9 15 5 8 1013.8 1013.1 0.0
27/12:30am 13.4 10.7 9.1 75 2.2 WSW 13 15 7 8 1014.4 1013.7 0.0
27/12:00am 17.1 14.1 7.7 54 4.8 SSE 13 15 7 8 1014.1 1013.3 0.0
 
Date/Time
EST
Temp
°C
App
Temp
°C
Dew
Point
°C
Rel
Hum
%
Delta-T
°C
Wind Press
QNH
hPa
Press
MSL
hPa
Rain since
9am
mm
Dir  Spd
km/h
Gust
km/h
Spd
kts
Gust
kts
26/11:30pm 17.9 14.9 7.9 52 5.1 SE 13 15 7 8 1014.4 1013.7 0.0
26/11:00pm 16.5 13.2 8.2 58 4.2 SE 15 17 8 9 1014.7 1014.0 0.0
26/10:30pm 15.0 12.8 8.0 63 3.5 SSE 9 11 5 6 1014.6 1013.9 0.0
26/10:00pm 16.8 15.2 8.2 57 4.4 SE 6 9 3 5 1014.6 1013.9 0.0
26/09:30pm 17.2 14.0 8.6 57 4.5 S 15 17 8 9 1014.4 1013.7 0.0
26/09:00pm 15.6 13.5 8.4 62 3.7 SSE 9 13 5 7 1013.9 1013.2 0.0
26/08:30pm 17.2 16.6 7.5 53 4.9 CALM 0 7 0 4 1013.5 1012.8 0.0
26/08:00pm 20.0 17.8 6.4 41 6.9 NE 7 7 4 4 1013.3 1012.6 0.0
26/07:30pm 19.8 19.2 7.5 45 6.3 CALM 0 0 0 0 1013.2 1012.5 0.0
26/07:00pm 21.6 21.0 7.4 40 7.4 CALM 0 0 0 0 1013.1 1012.4 0.0
26/06:30pm 22.1 21.2 5.9 35 8.2 CALM 0 0 0 0 1012.9 1012.2 0.0
26/06:00pm 24.8 22.7 5.6 29 9.9 SW 6 7 3 4 1012.7 1012.0 0.0
26/05:30pm 26.6 23.5 5.5 26 10.9 WSW 11 15 6 8 1012.4 1011.7 0.0
26/05:00pm 27.0 23.7 4.7 24 11.4 SSW 11 17 6 9 1012.1 1011.4 0.0
26/04:30pm 27.4 23.6 3.8 22 11.9 SW 13 24 7 13 1012.1 1011.4 0.0
26/04:00pm 27.7 23.9 4.1 22 12.0 SW 13 22 7 12 1011.9 1011.2 0.0
26/03:30pm 28.2 24.4 3.8 21 12.4 SW 13 20 7 11 1011.7 1011.0 0.0
26/03:00pm 28.1 24.1 5.0 23 12.0 WSW 15 22 8 12 1011.9 1011.2 0.0
26/02:30pm 27.7 24.8 4.7 23 11.8 SSW 9 19 5 10 1011.9 1011.2 0.0
26/02:00pm 27.1 23.8 2.2 20 12.2 W 9 20 5 11 1012.1 1011.4 0.0
26/01:30pm 26.9 22.5 2.7 21 12.0 SSW 15 24 8 13 1012.5 1011.8 0.0
26/01:00pm 26.3 22.5 4.1 24 11.2 S 13 22 7 12 1012.9 1012.2 0.0
26/12:30pm 26.2 22.1 4.6 25 11.0 SSW 15 26 8 14 1013.4 1012.7 0.0
26/12:00pm 26.0 22.0 5.0 26 10.8 S 15 20 8 11 1014.1 1013.3 0.0
26/11:30am 25.3 21.6 4.4 26 10.5 SSW 13 19 7 10 1014.7 1014.0 0.0
26/11:00am 25.9 22.0 5.5 27 10.5 SW 15 28 8 15 1015.2 1014.5 0.0
26/10:30am 24.6 21.0 4.9 28 10.0 S 13 22 7 12 1015.5 1014.8 0.0
26/10:00am 23.9 21.1 5.3 30 9.4 SSW 9 17 5 9 1015.9 1015.2 0.0
26/09:30am 24.1 20.2 5.5 30 9.5 SSE 15 22 8 12 1016.0 1015.3 0.0
26/09:00am 22.9 18.1 4.9 31 9.0 SSE 19 26 10 14 1016.1 1015.4 0.0
26/08:30am 22.8 17.9 5.3 32 8.8 SE 20 30 11 16 1016.2 1015.5 0.0
26/08:00am 21.9 16.8 5.8 35 8.1 SSE 22 28 12 15 1015.9 1015.2 0.0
26/07:30am 20.3 16.6 8.0 45 6.4 SSE 17 22 9 12 1015.3 1014.6 0.0
26/07:00am 15.6 14.4 9.7 68 3.1 SW 6 7 3 4 1015.0 1014.3 0.0
26/06:30am 12.2 11.0 9.4 83 1.4 NNW 6 9 3 5 1014.5 1013.8 0.0
26/06:00am 10.6 8.8 7.8 83 1.4 NNE 7 11 4 6 1014.3 1013.5 0.0
26/05:30am 11.1 10.0 6.8 75 2.1 SE 2 7 1 4 1013.7 1013.0 0.0
26/05:00am 12.7 11.0 7.6 71 2.5 SE 6 7 3 4 1013.2 1012.5 0.0
26/04:30am 13.1 9.4 8.0 71 2.5 SSW 17 17 9 9 1012.7 1012.0 0.0
26/04:00am 13.7 10.7 7.7 67 3.0 S 13 13 7 7 1012.6 1011.9 0.0
26/03:30am 14.5 11.1 7.5 63 3.5 SSW 15 17 8 9 1012.3 1011.6 0.0
26/03:00am 15.6 12.1 7.4 58 4.1 SSW 15 17 8 9 1012.3 1011.6 0.0
26/02:30am 15.9 12.1 7.4 57 4.3 SSW 17 19 9 10 1012.2 1011.5 0.0
26/02:00am 18.4 15.0 7.8 50 5.5 S 15 20 8 11 1012.4 1011.7 0.0
26/01:30am 18.5 14.3 7.6 49 5.6 S 19 24 10 13 1012.4 1011.7 0.0
26/01:00am 17.9 13.9 8.2 53 5.0 S 19 24 10 13 1012.4 1011.7 0.0
26/12:30am 17.9 14.4 8.7 55 4.8 SSW 17 19 9 10 1012.5 1011.8 0.0
26/12:00am 18.1 14.6 8.9 55 4.8 SSW 17 19 9 10 1012.5 1011.8 0.0
 
Date/Time
EST
Temp
°C
App
Temp
°C
Dew
Point
°C
Rel
Hum
%
Delta-T
°C
Wind Press
QNH
hPa
Press
MSL
hPa
Rain since
9am
mm
Dir  Spd
km/h
Gust
km/h
Spd
kts
Gust
kts
25/11:30pm 19.4 16.3 8.7 50 5.6 S 15 20 8 11 1012.7 1012.0 0.0
25/11:00pm 20.2 17.5 8.8 48 6.0 S 13 17 7 9 1012.6 1011.9 0.0
25/10:30pm 20.2 16.6 8.5 47 6.2 S 17 20 9 11 1012.8 1012.1 0.0
25/10:00pm 21.0 18.0 9.3 47 6.3 S 15 19 8 10 1012.6 1011.9 0.0
25/09:30pm 20.8 18.6 10.9 53 5.5 S 13 17 7 9 1012.6 1011.9 0.0
25/09:00pm 20.1 18.4 12.6 62 4.3 S 13 15 7 8 1012.3 1011.6 0.0
25/08:30pm 20.6 18.1 12.3 59 4.7 SSW 17 20 9 11 1011.9 1011.2 0.0
25/08:00pm 22.8 20.8 12.7 53 5.8 S 15 19 8 10 1011.5 1010.8 0.0
25/07:30pm 21.9 20.5 12.2 54 5.5 SSW 11 13 6 7 1010.9 1010.2 0.0
25/07:00pm 23.6 21.0 12.0 48 6.6 WSW 17 17 9 9 1010.5 1009.8 0.0
25/06:30pm 24.6 22.2 11.5 44 7.5 W 15 17 8 9 1010.1 1009.4 0.0
25/06:00pm 27.7 24.1 10.4 34 9.8 W 20 26 11 14 1009.6 1008.8 0.0
25/05:30pm 29.2 25.3 10.8 32 10.6 WSW 22 30 12 16 1009.1 1008.3 0.0
25/05:00pm 30.0 24.9 10.5 30 11.2 WSW 28 37 15 20 1008.8 1008.0 0.0
25/04:30pm 30.7 25.5 10.1 28 11.8 WSW 28 39 15 21 1008.4 1007.7 0.0
25/04:00pm 31.1 25.4 9.9 27 12.1 WSW 30 43 16 23 1008.4 1007.7 0.0
25/03:30pm 31.3 25.5 9.5 26 12.4 WSW 30 43 16 23 1008.2 1007.5 0.0
25/03:00pm 30.9 25.4 9.2 26 12.3 WSW 28 37 15 20 1008.3 1007.6 0.0
25/02:30pm 31.2 26.0 8.8 25 12.6 WSW 26 39 14 21 1008.4 1007.7 0.0
25/02:00pm 31.6 27.4 9.8 26 12.5 W 22 35 12 19 1008.7 1007.9 0.0
25/01:30pm 30.9 25.9 9.7 27 12.1 W 26 35 14 19 1009.1 1008.3 0.0
25/01:00pm 31.5 26.4 9.1 25 12.7 W 26 37 14 20 1009.5 1008.7 0.0
25/12:30pm 30.9 25.3 8.6 25 12.5 W 28 37 15 20 1009.6 1008.8 0.0
25/12:00pm 30.5 26.7 11.0 30 11.3 WNW 22 30 12 16 1010.2 1009.5 0.0
25/11:30am 29.1 25.7 12.5 36 9.8 W 22 30 12 16 1010.5 1009.8 0.0
25/11:00am 27.8 24.6 11.8 37 9.3 W 20 30 11 16 1010.9 1010.2 0.0
25/10:30am 27.9 25.0 12.3 38 9.1 W 19 32 10 17 1011.0 1010.3 0.0
25/10:00am 27.0 26.5 16.9 54 6.3 WNW 15 24 8 13 1011.4 1010.7 0.0
25/09:30am 26.1 27.6 18.8 64 4.7 NW 9 17 5 9 1011.2 1010.5 0.0
25/09:00am 24.4 26.1 18.1 68 4.0 SW 6 11 3 6 1011.2 1010.5 0.0
25/08:30am 23.0 24.7 19.4 80 2.3 WSW 9 15 5 8 1011.8 1011.1 0.0
25/08:00am 21.5 23.0 19.8 90 1.1 W 11 15 6 8 1011.8 1011.1 0.0
25/07:30am 21.0 23.5 20.3 96 0.5 W 7 9 4 5 1011.6 1010.9 0.0
25/07:00am 20.1 22.3 19.6 97 0.3 SW 7 11 4 6 1011.4 1010.7 0.0
25/06:30am 18.8 20.6 18.3 97 0.3 WSW 6 9 3 5 1010.8 1010.1 0.0
25/06:00am 17.2 19.4 16.4 95 0.5 CALM 0 4 0 2 1010.2 1009.5 0.0
25/05:30am 17.9 19.1 16.9 94 0.6 NE 6 7 3 4 1009.8 1009.1 0.0
25/05:00am 18.0 19.3 17.0 94 0.6 NE 6 7 3 4 1009.8 1009.1 0.0
25/04:30am 18.7 19.8 17.9 95 0.5 ENE 9 11 5 6 1009.1 1008.3 0.0
25/04:00am 18.7 20.1 17.9 95 0.5 NE 7 9 4 5 1008.9 1008.1 0.0
25/03:30am 19.3 21.0 18.5 95 0.5 ENE 7 9 4 5 1008.8 1008.0 0.0
25/03:00am 19.5 20.4 18.5 94 0.6 ENE 11 13 6 7 1008.9 1008.1 0.0
25/02:30am 19.6 20.9 18.4 93 0.8 NE 9 11 5 6 1009.0 1008.2 0.0
25/02:00am 19.6 21.2 18.3 92 0.8 ENE 7 9 4 5 1009.2 1008.4 0.0
25/01:30am 19.6 21.2 18.3 92 0.8 ENE 7 9 4 5 1009.5 1008.7 0.0
25/01:00am 19.8 21.2 18.6 93 0.8 ENE 9 11 5 6 1009.8 1009.1 0.0
25/12:30am 19.6 20.1 18.3 92 0.8 NE 13 15 7 8 1009.9 1009.2 0.0
25/12:00am 20.0 21.2 18.3 90 1.1 NE 9 13 5 7 1010.2 1009.5 0.0
 
Date/Time
EST
Temp
°C
App
Temp
°C
Dew
Point
°C
Rel
Hum
%
Delta-T
°C
Wind Press
QNH
hPa
Press
MSL
hPa
Rain since
9am
mm
Dir  Spd
km/h
Gust
km/h
Spd
kts
Gust
kts
24/11:30pm 20.6 21.6 18.7 89 1.2 ENE 11 13 6 7 1010.3 1009.6 0.0
24/11:00pm 21.1 22.3 19.0 88 1.3 ENE 11 13 6 7 1010.2 1009.5 0.0
24/10:30pm 21.1 22.1 18.7 86 1.5 NE 11 15 6 8 1010.2 1009.5 0.0
24/10:00pm 21.5 22.2 18.9 85 1.7 ENE 13 17 7 9 1010.3 1009.6 0.0
24/09:30pm 21.9 22.5 18.5 81 2.1 ENE 13 17 7 9 1010.4 1009.7 0.0
24/09:00pm 22.8 23.2 19.0 79 2.4 NE 15 19 8 10 1010.3 1009.6 0.0
24/08:30pm 23.3 23.6 17.1 68 3.9 ENE 11 15 6 8 1010.0 1009.3 0.0
24/08:00pm 24.2 23.6 14.6 55 5.8 SE 11 13 6 7 1009.3 1008.5 0.0
24/07:30pm 23.8 22.8 14.5 56 5.5 SSE 13 15 7 8 1008.9 1008.1 0.0
24/07:00pm 24.8 23.7 14.3 52 6.3 S 13 15 7 8 1008.3 1007.6 0.0
24/06:30pm 25.5 24.8 14.3 50 6.7 S 11 13 6 7 1007.9 1007.2 0.0
24/06:00pm 27.1 26.6 14.8 47 7.5 SW 11 13 6 7 1007.6 1006.9 0.0
24/05:30pm 29.6 28.5 14.2 39 9.4 SW 13 17 7 9 1007.3 1006.6 0.0
24/05:00pm 30.4 28.6 14.5 38 9.8 WSW 17 22 9 12 1007.1 1006.4 0.0
24/04:30pm 30.9 29.0 15.7 39 9.5 W 20 30 11 16 1007.1 1006.4 0.0
24/04:00pm 31.2 29.1 15.2 38 10.0 WSW 20 32 11 17 1007.0 1006.3 0.0
24/03:30pm 31.1 29.7 15.5 39 9.7 W 17 20 9 11 1007.0 1006.3 0.0
24/03:00pm 30.6 31.7 17.0 44 8.7 NNW 7 13 4 7 1007.4 1006.7 0.0
24/02:30pm 30.4 30.3 16.0 41 9.0 W 11 20 6 11 1007.9 1007.2 0.0
24/02:00pm 29.6 29.5 16.1 44 8.5 NW 11 26 6 14 1008.5 1007.8 0.0
24/01:30pm 29.8 29.6 16.6 45 8.3 NNW 13 20 7 11 1009.2 1008.4 0.0
24/01:00pm 28.8 28.1 16.4 47 7.8 NW 15 20 8 11 1009.9 1009.2 0.0
24/12:30pm 28.4 27.9 17.0 50 7.2 W 15 24 8 13 1010.4 1009.7 0.0
24/12:00pm 28.6 28.9 17.8 52 6.9 W 13 20 7 11 1011.1 1010.4 0.0
24/11:30am 27.8 27.3 17.0 51 6.8 NNW 15 24 8 13 1011.6 1010.9 0.0
24/11:00am 26.0 25.7 16.5 55 5.9 WNW 13 20 7 11 1012.3 1011.6 0.0
24/10:30am 25.4 24.0 16.5 58 5.5 NW 19 30 10 16 1012.7 1012.0 0.0
24/10:00am 25.4 25.1 16.5 58 5.5 NW 13 22 7 12 1013.1 1012.4 0.0
24/09:30am 24.3 24.1 14.7 55 5.8 NNW 9 19 5 10 1013.3 1012.6 0.0
24/09:00am 23.3 22.9 14.0 56 5.5 N 9 17 5 9 1013.7 1013.0 0.0
24/08:30am 22.2 22.0 14.6 62 4.5 NE 9 15 5 8 1013.8 1013.1 0.0
24/08:00am 21.1 20.8 15.4 70 3.4 NNE 11 17 6 9 1013.9 1013.2 0.0
24/07:30am 19.5 18.9 13.4 68 3.5 ENE 9 15 5 8 1013.6 1012.9 0.0
24/07:00am 16.2 16.9 12.2 77 2.2 CALM 0 0 0 0 1013.3 1012.6 0.0

Other Formats:

Comma delimited format used in spreadsheet applications
http://www.bom.gov.au/fwo/IDQ60801/IDQ60801.94398.axf

JavaScript Object Notation format (JSON) in row-major order
http://www.bom.gov.au/fwo/IDQ60801/IDQ60801.94398.json